sensor_id;sensor_type;location;lat;lon;timestamp;temperature;humidity
38798;SHT11;24546;52.240;16.826;2022-09-11T00:03:03;17.70;99.90
38798;SHT11;24546;52.240;16.826;2022-09-11T00:08:05;17.70;99.90
38798;SHT11;24546;52.240;16.826;2022-09-11T00:13:09;17.60;99.90
38798;SHT11;24546;52.240;16.826;2022-09-11T00:18:13;17.60;99.90
38798;SHT11;24546;52.240;16.826;2022-09-11T00:23:19;17.60;99.90
38798;SHT11;24546;52.240;16.826;2022-09-11T00:28:24;17.60;99.90
38798;SHT11;24546;52.240;16.826;2022-09-11T00:33:26;17.60;99.90
38798;SHT11;24546;52.240;16.826;2022-09-11T00:38:29;17.70;99.90
38798;SHT11;24546;52.240;16.826;2022-09-11T00:48:53;17.60;99.90
38798;SHT11;24546;52.240;16.826;2022-09-11T00:53:57;17.60;99.90
38798;SHT11;24546;52.240;16.826;2022-09-11T00:58:59;17.60;99.90
38798;SHT11;24546;52.240;16.826;2022-09-11T01:04:04;17.40;99.90
38798;SHT11;24546;52.240;16.826;2022-09-11T01:09:06;17.50;99.90
38798;SHT11;24546;52.240;16.826;2022-09-11T01:24:54;17.50;99.90
38798;SHT11;24546;52.240;16.826;2022-09-11T01:30:11;17.70;99.90
38798;SHT11;24546;52.240;16.826;2022-09-11T01:45:24;17.50;99.90
38798;SHT11;24546;52.240;16.826;2022-09-11T01:50:27;17.50;99.90
38798;SHT11;24546;52.240;16.826;2022-09-11T01:55:38;17.70;99.90
38798;SHT11;24546;52.240;16.826;2022-09-11T02:00:42;17.40;99.90
38798;SHT11;24546;52.240;16.826;2022-09-11T02:05:48;17.50;99.90
38798;SHT11;24546;52.240;16.826;2022-09-11T02:11:04;17.50;99.90
38798;SHT11;24546;52.240;16.826;2022-09-11T02:21:23;17.50;99.90
38798;SHT11;24546;52.240;16.826;2022-09-11T02:26:26;17.50;99.90
38798;SHT11;24546;52.240;16.826;2022-09-11T02:31:28;17.40;99.90
38798;SHT11;24546;52.240;16.826;2022-09-11T02:47:04;17.40;99.90
38798;SHT11;24546;52.240;16.826;2022-09-11T02:52:21;17.40;99.90
38798;SHT11;24546;52.240;16.826;2022-09-11T03:02:29;17.60;99.90
38798;SHT11;24546;52.240;16.826;2022-09-11T03:07:33;17.70;99.90
38798;SHT11;24546;52.240;16.826;2022-09-11T03:12:34;17.40;99.90
38798;SHT11;24546;52.240;16.826;2022-09-11T03:17:36;17.50;99.90
38798;SHT11;24546;52.240;16.826;2022-09-11T03:22:37;17.70;99.90
38798;SHT11;24546;52.240;16.826;2022-09-11T03:27:39;17.50;99.90
38798;SHT11;24546;52.240;16.826;2022-09-11T03:32:42;17.40;99.90
38798;SHT11;24546;52.240;16.826;2022-09-11T03:37:43;17.40;99.90
38798;SHT11;24546;52.240;16.826;2022-09-11T03:42:46;17.40;99.90
38798;SHT11;24546;52.240;16.826;2022-09-11T03:47:47;17.40;99.90
38798;SHT11;24546;52.240;16.826;2022-09-11T03:52:49;17.40;99.90
38798;SHT11;24546;52.240;16.826;2022-09-11T03:57:51;17.40;99.90
38798;SHT11;24546;52.240;16.826;2022-09-11T04:02:52;17.40;99.90
38798;SHT11;24546;52.240;16.826;2022-09-11T04:08:05;17.40;99.90
38798;SHT11;24546;52.240;16.826;2022-09-11T04:13:07;17.40;99.90
38798;SHT11;24546;52.240;16.826;2022-09-11T04:18:08;17.40;99.90
38798;SHT11;24546;52.240;16.826;2022-09-11T04:23:09;17.30;99.90
38798;SHT11;24546;52.240;16.826;2022-09-11T04:28:11;17.40;99.90
38798;SHT11;24546;52.240;16.826;2022-09-11T04:33:12;17.40;99.90
38798;SHT11;24546;52.240;16.826;2022-09-11T04:38:13;17.60;99.90
38798;SHT11;24546;52.240;16.826;2022-09-11T04:43:17;17.30;99.90
38798;SHT11;24546;52.240;16.826;2022-09-11T04:48:19;17.30;99.90
38798;SHT11;24546;52.240;16.826;2022-09-11T04:53:22;17.30;99.90
38798;SHT11;24546;52.240;16.826;2022-09-11T04:58:24;17.10;99.90
38798;SHT11;24546;52.240;16.826;2022-09-11T05:03:25;17.20;99.90
38798;SHT11;24546;52.240;16.826;2022-09-11T05:08:29;17.20;99.90
38798;SHT11;24546;52.240;16.826;2022-09-11T05:13:33;17.20;99.90
38798;SHT11;24546;52.240;16.826;2022-09-11T05:18:40;17.30;99.90
38798;SHT11;24546;52.240;16.826;2022-09-11T05:23:45;17.30;99.90
38798;SHT11;24546;52.240;16.826;2022-09-11T05:28:46;17.20;99.90
38798;SHT11;24546;52.240;16.826;2022-09-11T05:33:47;17.40;99.90
38798;SHT11;24546;52.240;16.826;2022-09-11T05:38:49;17.50;99.90
38798;SHT11;24546;52.240;16.826;2022-09-11T05:43:50;17.40;99.90
38798;SHT11;24546;52.240;16.826;2022-09-11T05:48:52;17.30;99.90
38798;SHT11;24546;52.240;16.826;2022-09-11T05:54:02;17.50;99.90
38798;SHT11;24546;52.240;16.826;2022-09-11T05:59:14;17.50;99.90
38798;SHT11;24546;52.240;16.826;2022-09-11T06:04:17;17.80;99.90
38798;SHT11;24546;52.240;16.826;2022-09-11T06:09:20;17.70;99.90
38798;SHT11;24546;52.240;16.826;2022-09-11T06:14:21;17.70;99.90
38798;SHT11;24546;52.240;16.826;2022-09-11T06:19:24;17.80;99.90
38798;SHT11;24546;52.240;16.826;2022-09-11T06:24:25;17.70;99.90
38798;SHT11;24546;52.240;16.826;2022-09-11T06:29:26;17.70;99.90
38798;SHT11;24546;52.240;16.826;2022-09-11T06:34:28;17.80;99.90
38798;SHT11;24546;52.240;16.826;2022-09-11T06:39:33;17.50;99.90
38798;SHT11;24546;52.240;16.826;2022-09-11T06:44:34;17.40;99.90
38798;SHT11;24546;52.240;16.826;2022-09-11T06:49:36;17.40;99.90
38798;SHT11;24546;52.240;16.826;2022-09-11T06:54:55;17.40;99.90
38798;SHT11;24546;52.240;16.826;2022-09-11T06:59:57;17.40;99.90
38798;SHT11;24546;52.240;16.826;2022-09-11T07:04:58;17.50;99.90
38798;SHT11;24546;52.240;16.826;2022-09-11T07:10:03;17.60;99.90
38798;SHT11;24546;52.240;16.826;2022-09-11T07:15:06;17.60;99.90
38798;SHT11;24546;52.240;16.826;2022-09-11T07:20:08;17.80;99.90
38798;SHT11;24546;52.240;16.826;2022-09-11T07:25:10;17.50;99.90
38798;SHT11;24546;52.240;16.826;2022-09-11T07:30:14;17.40;99.90
38798;SHT11;24546;52.240;16.826;2022-09-11T07:35:18;17.60;99.90
38798;SHT11;24546;52.240;16.826;2022-09-11T07:40:23;17.70;99.90
38798;SHT11;24546;52.240;16.826;2022-09-11T07:45:24;17.90;99.90
38798;SHT11;24546;52.240;16.826;2022-09-11T07:50:28;17.90;99.90
38798;SHT11;24546;52.240;16.826;2022-09-11T07:55:29;17.80;99.90
38798;SHT11;24546;52.240;16.826;2022-09-11T08:00:31;18.00;99.90
38798;SHT11;24546;52.240;16.826;2022-09-11T08:05:41;18.00;99.90
38798;SHT11;24546;52.240;16.826;2022-09-11T08:10:45;18.20;99.90
38798;SHT11;24546;52.240;16.826;2022-09-11T08:15:48;17.90;99.90
38798;SHT11;24546;52.240;16.826;2022-09-11T08:20:52;17.90;99.90
38798;SHT11;24546;52.240;16.826;2022-09-11T08:25:54;17.70;99.90
38798;SHT11;24546;52.240;16.826;2022-09-11T08:30:57;17.70;99.90
38798;SHT11;24546;52.240;16.826;2022-09-11T08:36:00;18.10;99.90
38798;SHT11;24546;52.240;16.826;2022-09-11T08:41:26;18.40;99.90
38798;SHT11;24546;52.240;16.826;2022-09-11T08:46:39;18.20;99.90
38798;SHT11;24546;52.240;16.826;2022-09-11T08:51:41;18.50;99.90
38798;SHT11;24546;52.240;16.826;2022-09-11T08:56:45;19.00;99.90
38798;SHT11;24546;52.240;16.826;2022-09-11T09:07:38;19.60;99.90
38798;SHT11;24546;52.240;16.826;2022-09-11T09:18:47;20.90;99.90
38798;SHT11;24546;52.240;16.826;2022-09-11T09:23:54;20.40;99.90
38798;SHT11;24546;52.240;16.826;2022-09-11T09:28:58;19.80;99.90
38798;SHT11;24546;52.240;16.826;2022-09-11T09:34:18;19.60;99.90
38798;SHT11;24546;52.240;16.826;2022-09-11T09:39:22;20.00;99.90
38798;SHT11;24546;52.240;16.826;2022-09-11T09:44:39;19.50;99.90
38798;SHT11;24546;52.240;16.826;2022-09-11T09:49:43;19.40;99.90
38798;SHT11;24546;52.240;16.826;2022-09-11T09:54:58;19.20;99.90
38798;SHT11;24546;52.240;16.826;2022-09-11T10:10:32;19.20;99.90
38798;SHT11;24546;52.240;16.826;2022-09-11T10:15:38;19.40;99.90
38798;SHT11;24546;52.240;16.826;2022-09-11T10:20:39;19.40;99.90
38798;SHT11;24546;52.240;16.826;2022-09-11T10:25:45;19.80;99.90
38798;SHT11;24546;52.240;16.826;2022-09-11T10:30:56;19.50;99.90
38798;SHT11;24546;52.240;16.826;2022-09-11T10:36:02;19.50;99.90
38798;SHT11;24546;52.240;16.826;2022-09-11T10:51:18;20.70;99.40
38798;SHT11;24546;52.240;16.826;2022-09-11T10:56:19;20.60;99.70
38798;SHT11;24546;52.240;16.826;2022-09-11T11:01:20;20.30;99.40
38798;SHT11;24546;52.240;16.826;2022-09-11T11:06:40;19.80;99.90
38798;SHT11;24546;52.240;16.826;2022-09-11T11:11:53;20.00;99.90
38798;SHT11;24546;52.240;16.826;2022-09-11T11:39:19;20.40;99.90
38798;SHT11;24546;52.240;16.826;2022-09-11T11:44:32;20.60;99.90
38798;SHT11;24546;52.240;16.826;2022-09-11T11:50:02;20.80;99.90
38798;SHT11;24546;52.240;16.826;2022-09-11T11:55:24;20.30;99.90
38798;SHT11;24546;52.240;16.826;2022-09-11T12:00:27;20.40;99.90
38798;SHT11;24546;52.240;16.826;2022-09-11T12:05:32;20.70;99.90
38798;SHT11;24546;52.240;16.826;2022-09-11T12:10:38;20.90;99.90
38798;SHT11;24546;52.240;16.826;2022-09-11T12:16:07;20.80;99.90
38798;SHT11;24546;52.240;16.826;2022-09-11T12:21:36;20.60;99.90
38798;SHT11;24546;52.240;16.826;2022-09-11T12:26:38;20.80;99.90
38798;SHT11;24546;52.240;16.826;2022-09-11T12:36:59;20.40;99.90
38798;SHT11;24546;52.240;16.826;2022-09-11T12:47:28;20.30;99.90
38798;SHT11;24546;52.240;16.826;2022-09-11T12:52:53;20.00;99.90
38798;SHT11;24546;52.240;16.826;2022-09-11T12:57:59;20.00;99.90
38798;SHT11;24546;52.240;16.826;2022-09-11T13:03:06;20.20;99.90
38798;SHT11;24546;52.240;16.826;2022-09-11T13:08:19;19.80;99.90
38798;SHT11;24546;52.240;16.826;2022-09-11T13:18:36;19.90;99.90
38798;SHT11;24546;52.240;16.826;2022-09-11T13:23:37;20.10;99.90
38798;SHT11;24546;52.240;16.826;2022-09-11T13:28:46;20.00;99.90
38798;SHT11;24546;52.240;16.826;2022-09-11T13:33:50;19.90;99.90
38798;SHT11;24546;52.240;16.826;2022-09-11T13:38:57;20.10;99.90
38798;SHT11;24546;52.240;16.826;2022-09-11T13:44:00;20.10;99.90
38798;SHT11;24546;52.240;16.826;2022-09-11T14:05:22;20.60;99.90
38798;SHT11;24546;52.240;16.826;2022-09-11T14:15:37;20.40;99.90
38798;SHT11;24546;52.240;16.826;2022-09-11T14:20:41;20.60;99.90
38798;SHT11;24546;52.240;16.826;2022-09-11T14:26:14;20.60;99.90
38798;SHT11;24546;52.240;16.826;2022-09-11T14:31:40;20.40;99.90
38798;SHT11;24546;52.240;16.826;2022-09-11T14:41:44;19.90;99.90
38798;SHT11;24546;52.240;16.826;2022-09-11T14:46:48;19.80;99.90
38798;SHT11;24546;52.240;16.826;2022-09-11T14:51:54;20.30;99.90
38798;SHT11;24546;52.240;16.826;2022-09-11T14:56:58;20.30;99.90
38798;SHT11;24546;52.240;16.826;2022-09-11T15:01:59;20.60;99.90
38798;SHT11;24546;52.240;16.826;2022-09-11T15:07:00;20.60;99.90
38798;SHT11;24546;52.240;16.826;2022-09-11T15:12:02;20.50;99.90
38798;SHT11;24546;52.240;16.826;2022-09-11T15:17:08;20.10;99.90
38798;SHT11;24546;52.240;16.826;2022-09-11T15:22:09;20.30;99.90
38798;SHT11;24546;52.240;16.826;2022-09-11T15:27:11;20.50;99.90
38798;SHT11;24546;52.240;16.826;2022-09-11T15:32:12;20.30;99.90
38798;SHT11;24546;52.240;16.826;2022-09-11T15:37:14;20.30;99.90
38798;SHT11;24546;52.240;16.826;2022-09-11T15:42:18;20.20;99.90
38798;SHT11;24546;52.240;16.826;2022-09-11T15:47:19;20.10;99.90
38798;SHT11;24546;52.240;16.826;2022-09-11T15:52:20;19.70;99.90
38798;SHT11;24546;52.240;16.826;2022-09-11T15:57:20;20.00;99.90
38798;SHT11;24546;52.240;16.826;2022-09-11T16:02:22;19.80;99.90
38798;SHT11;24546;52.240;16.826;2022-09-11T16:07:23;20.00;99.90
38798;SHT11;24546;52.240;16.826;2022-09-11T16:12:24;20.10;99.90
38798;SHT11;24546;52.240;16.826;2022-09-11T16:17:25;20.00;99.90
38798;SHT11;24546;52.240;16.826;2022-09-11T16:22:30;20.00;99.90
38798;SHT11;24546;52.240;16.826;2022-09-11T16:27:31;19.90;99.90
38798;SHT11;24546;52.240;16.826;2022-09-11T16:32:34;19.60;99.90
38798;SHT11;24546;52.240;16.826;2022-09-11T16:37:38;19.70;99.90
38798;SHT11;24546;52.240;16.826;2022-09-11T16:42:39;19.60;99.90
38798;SHT11;24546;52.240;16.826;2022-09-11T16:47:40;19.60;99.90
38798;SHT11;24546;52.240;16.826;2022-09-11T16:52:41;19.60;99.90
38798;SHT11;24546;52.240;16.826;2022-09-11T16:57:42;19.70;99.90
38798;SHT11;24546;52.240;16.826;2022-09-11T17:02:44;20.00;99.90
38798;SHT11;24546;52.240;16.826;2022-09-11T17:07:44;19.80;99.90
38798;SHT11;24546;52.240;16.826;2022-09-11T17:12:45;19.90;99.90
38798;SHT11;24546;52.240;16.826;2022-09-11T17:17:46;19.70;99.90
38798;SHT11;24546;52.240;16.826;2022-09-11T17:22:47;19.60;99.90
38798;SHT11;24546;52.240;16.826;2022-09-11T17:27:48;19.50;99.90
38798;SHT11;24546;52.240;16.826;2022-09-11T17:32:50;19.30;99.90
38798;SHT11;24546;52.240;16.826;2022-09-11T17:37:51;19.40;99.90
38798;SHT11;24546;52.240;16.826;2022-09-11T17:42:52;19.30;99.90
38798;SHT11;24546;52.240;16.826;2022-09-11T17:47:56;19.20;99.90
38798;SHT11;24546;52.240;16.826;2022-09-11T17:52:57;19.50;99.90
38798;SHT11;24546;52.240;16.826;2022-09-11T17:57:58;19.50;99.90
38798;SHT11;24546;52.240;16.826;2022-09-11T18:03:02;19.20;99.90
38798;SHT11;24546;52.240;16.826;2022-09-11T18:08:02;19.10;99.90
38798;SHT11;24546;52.240;16.826;2022-09-11T18:13:03;19.00;99.90
38798;SHT11;24546;52.240;16.826;2022-09-11T18:18:05;18.90;99.90
38798;SHT11;24546;52.240;16.826;2022-09-11T18:23:06;18.80;99.90
38798;SHT11;24546;52.240;16.826;2022-09-11T18:28:07;18.80;99.90
38798;SHT11;24546;52.240;16.826;2022-09-11T18:33:09;18.70;99.90
38798;SHT11;24546;52.240;16.826;2022-09-11T18:38:10;18.80;99.90
38798;SHT11;24546;52.240;16.826;2022-09-11T18:43:12;18.70;99.90
38798;SHT11;24546;52.240;16.826;2022-09-11T18:48:13;18.60;99.90
38798;SHT11;24546;52.240;16.826;2022-09-11T18:53:14;18.60;99.90
38798;SHT11;24546;52.240;16.826;2022-09-11T18:58:16;18.40;99.90
38798;SHT11;24546;52.240;16.826;2022-09-11T19:03:17;18.30;99.90
38798;SHT11;24546;52.240;16.826;2022-09-11T19:08:18;18.10;99.90
38798;SHT11;24546;52.240;16.826;2022-09-11T19:13:19;18.00;99.90
38798;SHT11;24546;52.240;16.826;2022-09-11T19:18:21;18.10;99.90
38798;SHT11;24546;52.240;16.826;2022-09-11T19:23:25;17.90;99.90
38798;SHT11;24546;52.240;16.826;2022-09-11T19:28:26;17.70;99.90
38798;SHT11;24546;52.240;16.826;2022-09-11T19:33:35;17.80;99.90
38798;SHT11;24546;52.240;16.826;2022-09-11T19:38:38;17.50;99.90
38798;SHT11;24546;52.240;16.826;2022-09-11T19:43:43;17.50;99.90
38798;SHT11;24546;52.240;16.826;2022-09-11T19:48:45;17.40;99.90
38798;SHT11;24546;52.240;16.826;2022-09-11T19:53:47;17.30;99.90
38798;SHT11;24546;52.240;16.826;2022-09-11T19:58:48;17.20;99.90
38798;SHT11;24546;52.240;16.826;2022-09-11T20:03:51;17.10;99.90
38798;SHT11;24546;52.240;16.826;2022-09-11T20:08:53;17.00;99.90
38798;SHT11;24546;52.240;16.826;2022-09-11T20:13:58;16.80;99.90
38798;SHT11;24546;52.240;16.826;2022-09-11T20:19:00;16.70;99.90
38798;SHT11;24546;52.240;16.826;2022-09-11T20:24:08;16.50;99.90
38798;SHT11;24546;52.240;16.826;2022-09-11T20:29:13;16.50;99.90
38798;SHT11;24546;52.240;16.826;2022-09-11T20:34:15;16.50;99.90
38798;SHT11;24546;52.240;16.826;2022-09-11T20:39:17;16.30;99.90
38798;SHT11;24546;52.240;16.826;2022-09-11T20:44:22;16.30;99.90
38798;SHT11;24546;52.240;16.826;2022-09-11T20:49:24;16.40;99.90
38798;SHT11;24546;52.240;16.826;2022-09-11T20:54:25;16.40;99.90
38798;SHT11;24546;52.240;16.826;2022-09-11T20:59:25;16.20;99.90
38798;SHT11;24546;52.240;16.826;2022-09-11T21:04:29;16.20;99.90
38798;SHT11;24546;52.240;16.826;2022-09-11T21:09:30;16.20;99.90
38798;SHT11;24546;52.240;16.826;2022-09-11T21:14:31;16.10;99.90
38798;SHT11;24546;52.240;16.826;2022-09-11T21:19:32;16.10;99.90
38798;SHT11;24546;52.240;16.826;2022-09-11T21:24:33;16.10;99.90
38798;SHT11;24546;52.240;16.826;2022-09-11T21:29:34;16.00;99.90
38798;SHT11;24546;52.240;16.826;2022-09-11T21:34:35;16.00;99.90
38798;SHT11;24546;52.240;16.826;2022-09-11T21:39:35;15.90;99.90
38798;SHT11;24546;52.240;16.826;2022-09-11T21:44:36;15.90;99.90
38798;SHT11;24546;52.240;16.826;2022-09-11T21:49:37;15.70;99.90
38798;SHT11;24546;52.240;16.826;2022-09-11T21:54:38;15.60;99.90
38798;SHT11;24546;52.240;16.826;2022-09-11T21:59:39;15.60;99.90
38798;SHT11;24546;52.240;16.826;2022-09-11T22:04:40;15.70;99.90
38798;SHT11;24546;52.240;16.826;2022-09-11T22:09:40;15.50;99.90
38798;SHT11;24546;52.240;16.826;2022-09-11T22:14:44;15.50;99.90
38798;SHT11;24546;52.240;16.826;2022-09-11T22:19:46;15.60;99.90
38798;SHT11;24546;52.240;16.826;2022-09-11T22:24:47;15.40;99.90
38798;SHT11;24546;52.240;16.826;2022-09-11T22:29:52;15.30;99.90
38798;SHT11;24546;52.240;16.826;2022-09-11T22:34:53;15.30;99.90
38798;SHT11;24546;52.240;16.826;2022-09-11T22:39:54;15.20;99.90
38798;SHT11;24546;52.240;16.826;2022-09-11T22:44:55;15.10;99.90
38798;SHT11;24546;52.240;16.826;2022-09-11T22:49:56;15.20;99.90
38798;SHT11;24546;52.240;16.826;2022-09-11T22:54:57;15.20;99.90
38798;SHT11;24546;52.240;16.826;2022-09-11T22:59:58;15.10;99.90
38798;SHT11;24546;52.240;16.826;2022-09-11T23:04:59;14.80;99.90
38798;SHT11;24546;52.240;16.826;2022-09-11T23:10:18;14.70;99.90
38798;SHT11;24546;52.240;16.826;2022-09-11T23:15:21;14.80;99.90
38798;SHT11;24546;52.240;16.826;2022-09-11T23:20:22;14.80;99.90
38798;SHT11;24546;52.240;16.826;2022-09-11T23:25:23;14.90;99.90
38798;SHT11;24546;52.240;16.826;2022-09-11T23:30:24;14.90;99.90
38798;SHT11;24546;52.240;16.826;2022-09-11T23:35:25;14.70;99.90
38798;SHT11;24546;52.240;16.826;2022-09-11T23:40:26;14.60;99.90
38798;SHT11;24546;52.240;16.826;2022-09-11T23:45:28;14.60;99.90
38798;SHT11;24546;52.240;16.826;2022-09-11T23:50:32;14.80;99.90
38798;SHT11;24546;52.240;16.826;2022-09-11T23:55:32;14.60;99.90
